Time;durP1;ratioP1;P1;durP2;ratioP2;P2;SDS_P1;SDS_P2;PMS_P1;PMS_P2;Temp;Humidity;BMP_temperature;BMP_pressure;BME280_temperature;BME280_humidity;BME280_pressure;Samples;Min_cycle;Max_cycle;Signal;HPM_P1;HPM_P2
2024/04/12 00:01:01;;;;;;;1.10;1.10;;;;;;;13.54;78.59;97954.09;5265860;27;20057;-65
2024/04/12 00:03:29;;;;;;;1.10;1.10;;;;;;;13.61;77.94;97947.84;5266358;27;20006;-65
2024/04/12 00:06:00;;;;;;;1.00;1.00;;;;;;;13.50;78.83;97942.06;5265792;27;20463;-65
2024/04/12 00:08:30;;;;;;;1.10;1.10;;;;;;;13.58;78.31;97949.38;5265805;27;20021;-65
2024/04/12 00:11:02;;;;;;;1.10;1.10;;;;;;;13.52;79.05;97950.88;5265058;27;20010;-65
2024/04/12 00:13:32;;;;;;;1.05;1.05;;;;;;;13.08;80.15;97907.81;5282670;26;20008;-65
2024/04/12 00:15:59;;;;;;;1.10;1.10;;;;;;;13.26;80.30;97947.94;5314592;26;20471;-64
2024/04/12 00:18:28;;;;;;;1.10;1.10;;;;;;;13.45;79.82;97950.72;5299694;27;20097;-65
2024/04/12 00:21:00;;;;;;;1.05;1.05;;;;;;;13.36;79.16;97935.41;5301010;26;20529;-66
2024/04/12 00:23:30;;;;;;;1.00;1.00;;;;;;;13.34;79.72;97941.34;5301399;27;20001;-66
2024/04/12 00:26:00;;;;;;;1.00;1.00;;;;;;;13.34;80.13;97943.34;5300063;27;20369;-65
2024/04/12 00:28:32;;;;;;;1.00;1.00;;;;;;;13.37;79.70;97948.94;5299166;27;20031;-65
2024/04/12 00:31:06;;;;;;;1.00;1.00;;;;;;;13.40;79.32;97942.66;5300480;26;20016;-64
2024/04/12 00:33:34;;;;;;;1.00;1.00;;;;;;;13.41;79.02;97949.03;5300372;26;20001;-65
2024/04/12 00:36:12;;;;;;;1.10;1.10;;;;;;;13.35;79.26;97945.75;5300230;26;20153;-65
2024/04/12 00:38:41;;;;;;;1.00;1.00;;;;;;;13.29;79.41;97946.41;5301061;26;20002;-65
2024/04/12 00:41:14;;;;;;;1.00;1.00;;;;;;;13.32;79.77;97937.31;5300606;26;20558;-65
2024/04/12 00:43:49;;;;;;;1.07;1.07;;;;;;;13.36;79.34;97947.34;5300016;27;20337;-65
2024/04/12 00:46:22;;;;;;;1.08;1.08;;;;;;;13.35;78.81;97940.19;5300714;26;20026;-66
2024/04/12 00:48:57;;;;;;;1.00;1.00;;;;;;;13.23;79.29;97940.31;5300242;26;20002;-64
2024/04/12 00:51:27;;;;;;;1.10;1.10;;;;;;;13.17;79.81;97946.53;5300176;26;20071;-65
2024/04/12 00:53:58;;;;;;;1.10;1.10;;;;;;;13.13;79.47;97942.88;5299272;27;20006;-66
2024/04/12 00:56:29;;;;;;;1.05;1.05;;;;;;;12.72;80.05;97885.94;5120843;26;5001490;-64
2024/04/12 00:58:59;;;;;;;1.00;1.00;;;;;;;13.13;79.86;97938.13;5299018;27;20002;-65
2024/04/12 01:01:27;;;;;;;1.00;1.00;;;;;;;13.05;80.87;97930.81;5298018;27;20017;-64
2024/04/12 01:03:55;;;;;;;1.00;1.00;;;;;;;13.12;80.48;97936.50;5300413;26;20080;-65
2024/04/12 01:06:29;;;;;;;1.00;1.00;;;;;;;13.10;80.82;97924.94;5299626;26;20005;-65
2024/04/12 01:08:58;;;;;;;1.00;1.00;;;;;;;13.02;81.22;97909.28;5300126;26;20574;-65
2024/04/12 01:11:27;;;;;;;1.00;1.00;;;;;;;13.05;81.81;97907.72;5300000;26;20014;-66
2024/04/12 01:13:54;;;;;;;1.00;1.00;;;;;;;12.86;81.52;97880.69;5300583;26;20006;-66
2024/04/12 01:16:24;;;;;;;1.00;1.00;;;;;;;13.27;81.32;97930.06;5299950;26;20020;-65
2024/04/12 01:18:55;;;;;;;1.10;1.10;;;;;;;13.27;81.51;97921.72;5300258;26;20416;-64
2024/04/12 01:21:26;;;;;;;1.00;1.00;;;;;;;13.31;81.91;97978.25;5300578;26;20013;-65
2024/04/12 01:23:56;;;;;;;1.10;1.10;;;;;;;13.42;80.56;97922.81;5300538;26;20548;-65
2024/04/12 01:26:24;;;;;;;1.10;1.10;;;;;;;13.11;80.57;97879.25;5298281;27;20009;-65
2024/04/12 01:28:52;;;;;;;1.10;1.10;;;;;;;13.44;80.80;97921.28;5298486;27;20006;-65
2024/04/12 01:31:19;;;;;;;1.00;1.00;;;;;;;13.32;81.19;97957.63;5300416;26;20002;-65
2024/04/12 01:33:50;;;;;;;1.08;1.08;;;;;;;13.31;80.75;97922.59;5300683;27;20020;-65
2024/04/12 01:36:18;;;;;;;1.10;1.10;;;;;;;13.44;79.77;97915.72;5298159;27;20072;-64
2024/04/12 01:38:53;;;;;;;1.05;1.05;;;;;;;13.44;79.50;97921.28;5299762;27;20012;-65
2024/04/12 01:41:31;;;;;;;1.20;1.20;;;;;;;13.15;78.93;97874.56;5299453;27;20076;-65
2024/04/12 01:44:06;;;;;;;1.10;1.10;;;;;;;13.37;78.70;97923.13;5299605;27;20002;-65
2024/04/12 01:46:35;;;;;;;1.10;1.10;;;;;;;13.13;79.60;97929.78;5299687;26;20129;-66
2024/04/12 01:49:05;;;;;;;1.10;1.10;;;;;;;12.46;80.55;97846.84;5299700;27;20383;-64
2024/04/12 01:51:35;;;;;;;1.10;1.10;;;;;;;12.30;81.28;97832.16;5299041;27;20037;-66
2024/04/12 01:54:13;;;;;;;1.10;1.10;;;;;;;12.37;80.71;97829.56;5297980;27;20001;-64
2024/04/12 01:56:48;;;;;;;1.08;1.08;;;;;;;13.09;80.02;97914.16;5297634;27;20064;-65
2024/04/12 01:59:23;;;;;;;1.10;1.10;;;;;;;13.07;79.91;97925.66;5300278;26;20394;-65
2024/04/12 02:01:50;;;;;;;1.00;1.00;;;;;;;12.97;80.21;97900.38;5301952;27;20002;-65
2024/04/12 02:04:20;;;;;;;1.00;1.00;;;;;;;12.93;80.34;97905.84;5301926;27;20010;-65
2024/04/12 02:06:48;;;;;;;0.90;0.90;;;;;;;12.40;80.36;97837.19;5308830;26;20448;-65
2024/04/12 02:09:16;;;;;;;1.10;1.10;;;;;;;13.01;79.46;97918.78;5314451;26;20016;-66
2024/04/12 02:11:46;;;;;;;1.20;1.20;;;;;;;12.71;79.38;97875.97;5302569;27;20001;-66
2024/04/12 02:14:14;;;;;;;1.10;1.10;;;;;;;13.10;78.71;97930.50;5302692;26;20403;-65
2024/04/12 02:16:49;;;;;;;1.00;1.00;;;;;;;13.10;78.61;97924.94;5300375;27;20548;-65
2024/04/12 02:19:21;;;;;;;1.00;1.00;;;;;;;12.97;79.43;97917.88;5300919;27;20002;-65
2024/04/12 02:21:48;;;;;;;1.10;1.10;;;;;;;13.03;79.25;97919.22;5300810;27;20034;-65
2024/04/12 02:24:18;;;;;;;1.02;1.02;;;;;;;13.01;79.46;97920.78;5300562;27;20005;-64
2024/04/12 02:26:49;;;;;;;1.00;1.00;;;;;;;13.10;78.79;97922.16;5302106;27;20546;-65
2024/04/12 02:29:16;;;;;;;1.10;1.10;;;;;;;12.88;78.19;97878.31;5300701;27;20013;-65
2024/04/12 02:31:43;;;;;;;1.10;1.10;;;;;;;13.09;78.75;97926.09;5300624;27;20023;-65
2024/04/12 02:34:11;;;;;;;1.05;1.05;;;;;;;13.02;78.35;97909.28;5300737;27;20568;-65
2024/04/12 02:36:38;;;;;;;1.05;1.05;;;;;;;13.14;78.25;97930.56;5302422;26;20020;-65
2024/04/12 02:39:08;;;;;;;1.02;1.02;;;;;;;13.15;78.01;97919.06;5302571;26;20390;-64
2024/04/12 02:41:37;;;;;;;1.00;1.00;;;;;;;13.08;78.30;97924.50;5302482;26;20009;-65
2024/04/12 02:44:06;;;;;;;1.00;1.00;;;;;;;13.15;78.00;97919.06;5302069;27;20006;-64
2024/04/12 02:46:33;;;;;;;1.05;1.05;;;;;;;12.67;78.04;97857.63;5302274;26;20006;-64
2024/04/12 02:49:05;;;;;;;1.00;1.00;;;;;;;13.16;78.30;97920.69;5301852;27;20340;-64
2024/04/12 02:51:31;;;;;;;1.02;1.02;;;;;;;13.13;77.72;97915.88;5291445;26;20313;-65
2024/04/12 02:53:58;;;;;;;1.08;1.08;;;;;;;13.15;77.69;97907.94;5301852;26;20588;-65
2024/04/12 02:56:26;;;;;;;1.00;1.00;;;;;;;13.35;76.77;97917.91;5300044;27;20010;-65
2024/04/12 02:58:53;;;;;;;1.00;1.00;;;;;;;13.41;75.78;97922.00;5302231;26;20010;-64
2024/04/12 03:01:20;;;;;;;1.10;1.10;;;;;;;13.48;75.51;97922.13;5301532;27;20017;-64
2024/04/12 03:03:49;;;;;;;1.00;1.00;;;;;;;13.52;75.04;97911.91;5302152;27;20006;-66
2024/04/12 03:06:24;;;;;;;1.13;1.13;;;;;;;13.67;74.52;97910.19;5301346;26;20005;-65
2024/04/12 03:08:59;;;;;;;1.10;1.10;;;;;;;13.67;73.57;97916.53;5301642;27;20361;-65
2024/04/12 03:11:37;;;;;;;1.20;1.20;;;;;;;13.81;73.26;97923.56;5301779;26;20012;-65
2024/04/12 03:14:11;;;;;;;1.00;1.00;;;;;;;13.88;72.53;97923.69;5301118;27;20053;-65
2024/04/12 03:16:43;;;;;;;1.10;1.10;;;;;;;13.68;71.58;97893.13;5301933;27;20026;-64
2024/04/12 03:19:13;;;;;;;1.20;1.20;;;;;;;14.05;71.46;97926.00;5300040;27;20057;-64
2024/04/12 03:21:41;;;;;;;1.15;1.15;;;;;;;14.08;71.61;97928.03;5302024;27;20014;-65
2024/04/12 03:24:09;;;;;;;1.20;1.20;;;;;;;14.13;71.75;97941.66;5302063;27;20001;-65
2024/04/12 03:26:36;;;;;;;1.08;1.08;;;;;;;14.11;71.65;97938.44;5300361;27;20049;-65
2024/04/12 03:29:05;;;;;;;1.20;1.20;;;;;;;14.19;71.47;97929.03;5301047;27;20001;-66
2024/04/12 03:31:34;;;;;;;1.10;1.10;;;;;;;13.76;71.72;97893.22;5300404;27;20043;-66
2024/04/12 03:34:06;;;;;;;1.13;1.13;;;;;;;14.16;71.90;97932.56;5302347;26;20002;-65
2024/04/12 03:42:06;;;;;;;1.20;1.20;;;;;;;14.49;71.89;97938.31;5301307;27;20093;-64
2024/04/12 03:44:36;;;;;;;1.20;1.20;;;;;;;13.59;71.00;97778.38;5301089;27;20315;-64
2024/04/12 03:47:10;;;;;;;1.10;1.10;;;;;;;14.69;71.38;97937.03;5300914;27;20006;-65
2024/04/12 03:49:41;;;;;;;1.10;1.10;;;;;;;14.76;71.56;97931.56;5301532;27;20038;-65
2024/04/12 03:52:12;;;;;;;1.23;1.23;;;;;;;14.90;71.17;97931.78;5301672;27;20009;-65
2024/04/12 03:54:41;;;;;;;1.30;1.30;;;;;;;14.83;70.55;97892.59;5301275;27;20002;-64
2024/04/12 03:57:09;;;;;;;1.20;1.20;;;;;;;15.19;69.86;97945.72;5301348;27;20519;-65
2024/04/12 03:59:46;;;;;;;1.30;1.30;;;;;;;15.06;70.47;97902.50;5301263;27;20001;-65
2024/04/12 04:02:14;;;;;;;1.10;1.10;;;;;;;15.46;69.96;97938.13;5301402;26;20416;-65
2024/04/12 04:04:44;;;;;;;1.30;1.30;;;;;;;15.29;69.53;97896.81;5300973;27;20457;-64
2024/04/12 04:07:16;;;;;;;1.20;1.20;;;;;;;15.72;68.82;97946.44;5299383;27;20052;-65
2024/04/12 04:09:46;;;;;;;1.60;1.60;;;;;;;15.58;68.59;97907.16;5302074;27;20033;-64
2024/04/12 04:12:14;;;;;;;1.40;1.40;;;;;;;15.80;69.28;97934.16;5301188;27;20006;-65
2024/04/12 04:14:50;;;;;;;1.30;1.30;;;;;;;15.77;67.95;97904.19;5298667;27;20009;-65
2024/04/12 04:17:29;;;;;;;1.40;1.40;;;;;;;16.18;67.97;97953.31;5301258;26;20460;-65
2024/04/12 04:19:58;;;;;;;1.30;1.30;;;;;;;16.33;67.72;97955.03;5300961;27;20009;-64
2024/04/12 04:24:52;;;;;;;1.73;1.73;;;;;;;16.51;67.53;97956.03;5298645;27;20045;-65
2024/04/12 04:27:21;;;;;;;1.60;1.60;;;;;;;16.55;66.78;97951.25;5298952;27;20057;-65
2024/04/12 04:29:51;;;;;;;1.60;1.60;;;;;;;16.52;66.45;97937.25;5298264;27;20382;-65
2024/04/12 04:32:21;;;;;;;1.60;1.60;;;;;;;16.40;66.18;97901.97;5298772;27;20030;-65
2024/04/12 04:35:04;;;;;;;1.60;1.60;;;;;;;16.92;65.76;97958.72;5300367;27;20013;-64
2024/04/12 04:37:37;;;;;;;1.80;1.80;;;;;;;17.07;65.14;97960.44;5301237;27;20010;-64
2024/04/12 04:40:12;;;;;;;1.70;1.70;;;;;;;17.15;64.37;97967.69;5299791;27;20420;-65
2024/04/12 04:42:39;;;;;;;1.85;1.85;;;;;;;16.80;63.99;97900.28;5300145;27;20024;-64
2024/04/12 04:45:07;;;;;;;1.55;1.55;;;;;;;17.08;64.30;97928.44;5298534;27;20010;-66
2024/04/12 04:47:39;;;;;;;1.42;1.42;;;;;;;17.39;63.28;97939.00;5300485;27;20302;-65
2024/04/12 04:50:09;;;;;;;1.60;1.60;;;;;;;17.81;62.42;97972.84;5298286;27;20010;-64
2024/04/12 04:52:37;;;;;;;1.70;1.70;;;;;;;17.66;61.71;97923.53;5300291;27;20002;-64
2024/04/12 04:55:07;;;;;;;1.70;1.70;;;;;;;18.08;60.95;97965.72;5298276;27;20095;-63
2024/04/12 04:57:41;;;;;;;1.85;1.85;;;;;;;17.41;61.68;97881.41;5300685;27;20013;-65
2024/04/12 05:00:08;;;;;;;1.77;1.77;;;;;;;18.16;59.92;97958.94;5300262;27;20793;-64
2024/04/12 05:02:36;;;;;;;1.70;1.70;;;;;;;18.04;59.53;97931.25;5298766;27;20021;-64
2024/04/12 05:05:06;;;;;;;1.80;1.80;;;;;;;18.23;60.78;97955.31;5300167;26;20015;-64
2024/04/12 05:07:34;;;;;;;1.80;1.80;;;;;;;17.81;59.79;97892.34;5300087;27;20016;-64
2024/04/12 05:10:21;;;;;;;1.75;1.75;;;;;;;18.42;58.99;97964.19;5299784;27;20009;-65
2024/04/12 05:12:50;;;;;;;1.88;1.88;;;;;;;18.34;57.85;97939.28;5300108;26;20021;-61
2024/04/12 05:18:03;;;;;;;1.95;1.95;;;;;;;18.72;57.32;97967.41;5300838;26;20308;-60
2024/04/12 05:20:39;;;;;;;1.88;1.88;;;;;;;18.94;55.30;97974.63;5301212;27;20480;-61
2024/04/12 05:23:13;;;;;;;1.98;1.98;;;;;;;19.15;55.84;97985.84;5298858;27;20008;-60
2024/04/12 05:25:41;;;;;;;1.90;1.90;;;;;;;18.89;55.94;97983.44;5299710;27;20036;-62
2024/04/12 05:28:09;;;;;;;2.08;2.08;;;;;;;19.14;55.17;97978.59;5299527;26;20024;-61
2024/04/12 05:30:37;;;;;;;2.00;2.00;;;;;;;19.20;55.78;97977.00;5298132;27;20009;-61
2024/04/12 05:33:04;;;;;;;2.00;2.00;;;;;;;19.46;54.61;97982.19;5300233;26;20016;-61
2024/04/12 05:35:34;;;;;;;2.28;2.28;;;;;;;19.62;54.53;97987.34;5298357;27;20002;-61
2024/04/12 05:38:07;;;;;;;2.10;2.10;;;;;;;19.02;52.78;97886.34;5316346;26;20019;-66
2024/04/12 05:40:45;;;;;;;2.13;2.13;;;;;;;19.11;52.93;97838.97;5296056;27;20473;-76
2024/04/12 05:43:16;;;;;;;2.38;2.35;;;;;;;19.73;51.85;97925.47;5275310;27;20017;-67
2024/04/12 05:45:53;;;;;;;2.20;2.20;;;;;;;19.50;51.48;97890.25;5301770;26;20005;-64
2024/04/12 05:48:21;;;;;;;2.20;2.20;;;;;;;20.01;51.54;97934.53;5290178;27;20006;-64
2024/04/12 05:50:53;;;;;;;2.22;2.22;;;;;;;20.55;50.66;97972.44;5279702;27;20700;-63
2024/04/12 05:53:30;;;;;;;2.30;2.30;;;;;;;20.56;50.59;97943.06;5297843;27;20012;-64
2024/04/12 05:58:45;;;;;;;2.40;2.35;;;;;;;21.02;49.87;97968.03;5299800;27;20020;-63
2024/04/12 06:01:12;;;;;;;2.20;2.20;;;;;;;21.16;49.00;97962.25;5301880;26;20024;-63
2024/04/12 06:03:42;;;;;;;2.42;2.35;;;;;;;21.22;49.13;97966.22;5302132;26;20020;-62
2024/04/12 06:06:12;;;;;;;2.08;2.08;;;;;;;21.47;48.99;97967.56;5301685;26;20021;-66
2024/04/12 06:08:41;;;;;;;2.20;2.20;;;;;;;20.50;48.78;97795.50;5300738;27;20831;-62
2024/04/12 06:11:09;;;;;;;2.47;2.38;;;;;;;21.63;49.04;97945.22;5297716;27;20021;-69
2024/04/12 06:13:38;;;;;;;2.47;2.38;;;;;;;21.97;48.39;97967.81;5302108;27;20009;-67
2024/04/12 06:16:05;;;;;;;2.10;2.10;;;;;;;21.38;48.39;97882.69;5300988;27;19997;-67
2024/04/12 06:18:32;;;;;;;2.70;2.60;;;;;;;22.18;48.04;97973.97;5301866;26;20021;-63
2024/04/12 06:21:04;;;;;;;2.55;2.45;;;;;;;21.32;48.88;97864.66;5293615;27;20017;-69
2024/04/12 06:23:33;;;;;;;2.60;2.50;;;;;;;22.04;48.48;97974.16;5300393;27;20005;-70
2024/04/12 06:26:00;;;;;;;2.50;2.40;;;;;;;21.37;49.10;97912.09;5299613;27;20006;-70
2024/04/12 06:28:27;;;;;;;2.45;2.35;;;;;;;21.53;47.83;97915.13;5299706;27;20002;-69
2024/04/12 06:30:56;;;;;;;2.67;2.58;;;;;;;21.33;48.89;97939.53;5300426;27;20014;-63
2024/04/12 06:33:23;;;;;;;2.13;2.13;;;;;;;21.50;49.59;97955.44;5294858;27;20457;-67
2024/04/12 06:36:04;;;;;;;2.50;2.40;;;;;;;21.55;48.80;97965.47;5301808;26;20009;-65
2024/04/12 06:38:33;;;;;;;2.60;2.50;;;;;;;21.22;49.11;97933.22;5299957;27;20519;-65
2024/04/12 06:41:03;;;;;;;2.10;2.10;;;;;;;21.83;48.70;97968.00;5301164;26;20009;-67
2024/04/12 06:43:33;;;;;;;1.98;1.98;;;;;;;22.05;48.45;97969.31;5299839;27;20391;-63
2024/04/12 06:46:08;;;;;;;2.50;2.40;;;;;;;21.94;47.96;97963.00;5296863;27;20450;-63
2024/04/12 06:48:36;;;;;;;2.30;2.30;;;;;;;21.82;48.13;97967.19;5299220;26;20342;-70
2024/04/12 06:51:05;;;;;;;2.15;2.15;;;;;;;21.40;48.48;97933.81;5319884;26;20058;-69
2024/04/12 06:53:32;;;;;;;2.45;2.35;;;;;;;21.21;48.54;97911.91;5300483;27;20017;-62
2024/04/12 06:56:05;;;;;;;2.20;2.20;;;;;;;21.54;47.96;97973.13;5299754;27;19997;-64
2024/04/12 06:58:33;;;;;;;2.20;2.20;;;;;;;21.43;48.56;97949.91;5299362;27;20079;-61
2024/04/12 07:01:05;;;;;;;2.20;2.20;;;;;;;21.73;47.62;97974.53;5298585;26;20664;-64
2024/04/12 07:03:34;;;;;;;2.50;2.40;;;;;;;21.33;47.74;97849.31;5301315;26;20397;-75
2024/04/12 07:06:02;;;;;;;2.15;2.15;;;;;;;21.69;46.27;97878.66;5294929;27;20016;-61
2024/04/12 07:08:29;;;;;;;2.00;2.00;;;;;;;22.22;47.22;97985.19;5271479;27;20006;-60
2024/04/12 07:10:56;;;;;;;2.58;2.47;;;;;;;22.07;46.80;97922.50;5299724;26;20001;-66
2024/04/12 07:13:27;;;;;;;2.80;2.70;;;;;;;22.48;45.91;97965.44;5301212;27;20006;-61
2024/04/12 07:16:01;;;;;;;2.20;2.20;;;;;;;22.44;46.59;97908.25;5325675;26;20001;-65
2024/04/12 07:18:29;;;;;;;2.60;2.50;;;;;;;22.88;44.95;97968.47;5297600;27;20015;-61
2024/04/12 07:21:14;;;;;;;2.58;2.47;;;;;;;22.60;45.59;97968.94;5298512;27;20057;-60
2024/04/12 07:23:46;;;;;;;2.63;2.53;;;;;;;22.74;46.03;97974.38;5292510;27;20088;-66
2024/04/12 07:26:26;;;;;;;2.70;2.60;;;;;;;22.51;44.47;97892.41;5270677;27;20351;-64
2024/04/12 07:29:00;;;;;;;2.67;2.58;;;;;;;22.84;45.76;97982.66;5284491;27;20002;-68
2024/04/12 07:31:31;;;;;;;2.50;2.40;;;;;;;22.96;44.31;97986.91;5297889;27;20084;-72
2024/04/12 07:34:01;;;;;;;2.65;2.55;;;;;;;22.64;43.85;97944.25;5300074;26;20016;-73
2024/04/12 07:36:32;;;;;;;2.28;2.28;;;;;;;23.21;43.84;97987.28;5298237;26;20112;-64
2024/04/12 07:39:01;;;;;;;2.53;2.42;;;;;;;22.61;43.41;97939.44;5306864;26;20030;-62
2024/04/12 07:41:31;;;;;;;2.42;2.35;;;;;;;22.06;43.32;97870.13;5300383;26;20016;-65
2024/04/12 07:43:59;;;;;;;2.40;2.35;;;;;;;23.20;43.46;97980.03;5300611;27;20030;-65
2024/04/12 07:46:33;;;;;;;2.63;2.53;;;;;;;23.55;44.03;97983.03;5300129;26;20010;-59
2024/04/12 07:49:07;;;;;;;2.58;2.47;;;;;;;23.27;43.83;97949.63;5297782;27;20001;-67
2024/04/12 07:51:39;;;;;;;2.65;2.55;;;;;;;22.56;42.37;97863.72;5297184;27;20013;-66
2024/04/12 07:54:11;;;;;;;2.90;2.80;;;;;;;23.73;42.31;97971.38;5301859;26;20017;-68
2024/04/12 07:56:43;;;;;;;2.60;2.50;;;;;;;23.48;41.65;97931.47;5328001;26;19998;-68
2024/04/12 07:59:15;;;;;;;2.70;2.60;;;;;;;23.64;43.35;97974.78;5301254;27;20021;-65
2024/04/12 08:01:46;;;;;;;2.60;2.50;;;;;;;23.36;43.59;97938.53;5299694;26;20045;-64
2024/04/12 08:04:26;;;;;;;2.95;2.85;;;;;;;23.73;43.00;97945.91;5300716;27;20006;-67
2024/04/12 08:06:57;;;;;;;2.78;2.67;;;;;;;23.97;42.29;97947.44;5298911;27;20009;-63
2024/04/12 08:09:34;;;;;;;2.75;2.65;;;;;;;23.79;42.13;97952.63;5300590;26;20016;-62
2024/04/12 08:12:13;;;;;;;2.97;2.88;;;;;;;24.06;41.25;97961.81;5300415;27;20018;-62
2024/04/12 08:14:51;;;;;;;3.10;3.00;;;;;;;23.60;40.56;97877.06;5299919;27;20006;-68
2024/04/12 08:17:28;;;;;;;2.67;2.58;;;;;;;23.38;41.72;97907.00;5300339;26;20017;-61
2024/04/12 08:20:13;;;;;;;2.95;2.85;;;;;;;22.03;41.11;97717.78;5297873;27;20370;-61
2024/04/12 08:22:43;;;;;;;2.72;2.63;;;;;;;23.59;40.81;97878.28;5300866;27;20080;-60
2024/04/12 08:25:17;;;;;;;2.70;2.60;;;;;;;23.83;40.62;97936.41;5299043;27;20062;-69
2024/04/12 08:27:45;;;;;;;2.67;2.58;;;;;;;23.89;41.84;97962.94;5300356;27;20006;-64
2024/04/12 08:30:19;;;;;;;3.08;2.97;;;;;;;24.01;41.21;97924.72;5289594;27;20475;-64
2024/04/12 08:32:50;;;;;;;2.65;2.55;;;;;;;23.53;41.27;97945.09;5271979;27;19997;-61
2024/04/12 08:35:21;;;;;;;2.70;2.60;;;;;;;23.91;41.10;97960.50;5299272;27;20006;-68
2024/04/12 08:37:51;;;;;;;2.70;2.60;;;;;;;23.33;41.04;97924.50;5299892;26;20009;-74
2024/04/12 08:40:24;;;;;;;2.72;2.63;;;;;;;24.07;41.55;97963.41;5298842;26;20002;-63
2024/04/12 08:42:57;;;;;;;2.70;2.60;;;;;;;24.21;41.14;97965.13;5299049;26;20006;-72
2024/04/12 08:45:37;;;;;;;2.88;2.78;;;;;;;24.25;40.29;97958.16;5299353;27;20017;-68
2024/04/12 08:48:04;;;;;;;3.10;3.00;;;;;;;23.51;40.53;97845.72;5297657;27;19997;-69
2024/04/12 08:50:35;;;;;;;2.75;2.65;;;;;;;24.16;41.19;97949.47;5297494;27;20049;-69
2024/04/12 08:53:11;;;;;;;2.88;2.78;;;;;;;24.06;40.37;97955.38;5298254;27;20001;-67
2024/04/12 08:55:44;;;;;;;3.05;2.95;;;;;;;24.39;40.45;97952.16;5298684;27;20094;-68
2024/04/12 08:58:20;;;;;;;2.83;2.72;;;;;;;24.19;39.73;97917.44;5300353;27;20013;-62
2024/04/12 09:00:51;;;;;;;2.90;2.80;;;;;;;24.13;40.09;97956.00;5284514;27;20476;-63
2024/04/12 09:03:25;;;;;;;2.83;2.72;;;;;;;24.38;40.03;97899.59;5266774;27;20337;-68
2024/04/12 09:05:53;;;;;;;2.97;2.88;;;;;;;24.36;39.24;97907.72;5286375;27;20029;-63
2024/04/12 09:08:22;;;;;;;2.90;2.80;;;;;;;24.51;40.23;97937.31;5298496;27;20017;-62
2024/04/12 09:10:52;;;;;;;3.03;2.92;;;;;;;23.35;40.17;97792.72;5263924;26;20017;-61
2024/04/12 09:13:21;;;;;;;2.88;2.78;;;;;;;24.25;39.66;97895.84;5323158;26;20005;-68
2024/04/12 09:15:50;;;;;;;2.67;2.58;;;;;;;24.89;39.95;97929.94;5278768;27;20010;-68
2024/04/12 09:18:26;;;;;;;2.75;2.65;;;;;;;24.49;39.71;97928.47;5265800;27;20042;-61
2024/04/12 09:21:05;;;;;;;3.00;2.90;;;;;;;24.26;39.51;97880.47;5264869;27;20523;-60
2024/04/12 09:23:35;;;;;;;3.00;2.90;;;;;;;24.09;41.16;97892.19;5265454;27;20358;-62
2024/04/12 09:26:21;;;;;;;2.65;2.55;;;;;;;24.27;39.66;97831.06;5264680;27;20110;-63
2024/04/12 09:28:51;;;;;;;2.80;2.70;;;;;;;24.66;39.46;97878.28;5262738;27;20017;-70
2024/04/12 09:37:01;;;;;;;3.20;3.10;;;;;;;25.80;38.31;97909.59;5265399;27;20307;-61
2024/04/12 09:42:19;;;;;;;3.17;3.08;;;;;;;24.75;39.14;97907.63;5281321;27;20021;-63
2024/04/12 09:44:49;;;;;;;2.80;2.70;;;;;;;24.89;38.80;97870.41;5263767;27;20029;-63
2024/04/12 10:37:47;;;;;;;3.10;3.00;;;;;;;25.23;37.91;97879.19;5301555;27;20002;-64
2024/04/12 10:40:16;;;;;;;2.95;2.85;;;;;;;25.09;38.37;97871.06;5301711;26;20013;-67
2024/04/12 10:42:46;;;;;;;2.90;2.80;;;;;;;24.91;38.16;97814.03;5276100;26;20444;-61
2024/04/12 10:45:17;;;;;;;3.10;3.00;;;;;;;24.64;37.79;97856.03;5275529;27;20454;-73
2024/04/12 10:47:46;;;;;;;2.85;2.75;;;;;;;25.10;38.19;97872.66;5295537;27;20123;-73
2024/04/12 10:50:14;;;;;;;3.35;3.25;;;;;;;25.06;38.37;97871.97;5281051;27;20006;-62
2024/04/12 10:52:42;;;;;;;3.55;3.45;;;;;;;24.27;37.94;97714.94;5267545;27;20002;-65
2024/04/12 10:55:10;;;;;;;3.15;3.05;;;;;;;25.10;38.63;97776.22;5279455;27;20020;-65
2024/04/12 10:57:50;;;;;;;3.30;3.20;;;;;;;25.06;38.24;97822.94;5301702;26;20024;-66
2024/04/12 11:00:27;;;;;;;3.00;2.90;;;;;;;25.73;37.40;97863.59;5278775;27;20037;-72
2024/04/12 11:02:55;;;;;;;3.13;3.03;;;;;;;25.37;37.65;97783.59;5300534;27;20009;-70
2024/04/12 11:08:02;;;;;;;3.40;3.30;;;;;;;25.93;37.26;97850.00;5301285;26;20020;-75
2024/04/12 11:10:55;;;;;;;3.38;3.28;;;;;;;25.46;37.71;97854.66;5298847;27;20147;-70
2024/04/12 11:13:29;;;;;;;3.35;3.25;;;;;;;24.99;38.03;97744.53;5301661;26;20012;-73
2024/04/12 11:32:27;;;;;;;3.40;3.30;;;;;;;25.20;37.50;97814.84;5300238;27;20033;-64
2024/04/12 11:34:55;;;;;;;3.15;3.05;;;;;;;25.44;37.11;97806.06;5300055;26;20024;-66
2024/04/12 11:37:24;;;;;;;3.30;3.20;;;;;;;25.87;37.21;97843.28;5285109;26;21666;-71
2024/04/12 11:39:53;;;;;;;3.10;3.00;;;;;;;22.74;37.05;97463.03;5288407;27;20035;-66
2024/04/12 11:42:20;;;;;;;3.45;3.35;;;;;;;25.40;37.10;97828.09;5298266;27;20014;-65
2024/04/12 11:44:53;;;;;;;3.00;2.90;;;;;;;24.51;36.57;97705.00;5286088;27;20006;-75
2024/04/12 11:47:23;;;;;;;3.15;3.05;;;;;;;24.90;37.04;97721.72;5299384;27;20005;-72
2024/04/12 11:49:57;;;;;;;2.95;2.85;;;;;;;25.73;37.33;97823.84;5270835;26;20551;-68
2024/04/12 11:52:25;;;;;;;3.25;3.15;;;;;;;24.21;37.39;97589.31;5298826;27;20002;-66
2024/04/12 11:54:58;;;;;;;3.17;3.08;;;;;;;25.35;36.73;97743.53;5295273;26;20029;-70
2024/04/12 11:57:30;;;;;;;3.23;3.13;;;;;;;25.58;36.55;97768.75;5286008;27;20034;-64
2024/04/12 11:59:59;;;;;;;3.47;3.38;;;;;;;25.36;37.64;97855.75;5290165;27;20017;-75
2024/04/12 12:02:28;;;;;;;2.97;2.88;;;;;;;24.98;37.75;97779.81;5299863;26;20057;-61
2024/04/12 12:04:56;;;;;;;2.97;2.88;;;;;;;25.66;37.36;97795.69;5299343;26;20017;-62
2024/04/12 12:07:26;;;;;;;3.38;3.28;;;;;;;25.73;36.60;97795.47;5282407;27;20028;-67
2024/04/12 12:09:53;;;;;;;3.28;3.17;;;;;;;25.35;37.24;97792.56;5293444;26;20008;-61
2024/04/12 12:12:26;;;;;;;2.97;2.88;;;;;;;25.87;37.14;97797.88;5289121;26;20042;-61
2024/04/12 12:14:54;;;;;;;3.30;3.20;;;;;;;25.58;37.50;97766.72;5280266;26;20009;-61
2024/04/12 12:17:21;;;;;;;3.30;3.20;;;;;;;25.66;36.88;97738.91;5282094;27;20010;-60
2024/04/12 12:19:52;;;;;;;3.45;3.35;;;;;;;26.23;36.06;97792.66;5265151;27;20419;-61
2024/04/12 12:22:21;;;;;;;2.97;2.88;;;;;;;25.95;37.12;97790.72;5267357;27;20010;-61
2024/04/12 12:24:49;;;;;;;3.30;3.20;;;;;;;26.08;36.39;97788.72;5266707;27;20018;-61
2024/04/12 12:27:23;;;;;;;3.45;3.35;;;;;;;25.71;36.72;97792.28;5266694;27;20025;-63
2024/04/12 12:29:53;;;;;;;3.22;3.13;;;;;;;25.63;37.58;97786.03;5266250;27;20017;-61
2024/04/12 12:32:25;;;;;;;3.13;3.03;;;;;;;25.90;36.29;97720.28;5267115;27;20100;-62
2024/04/12 12:34:53;;;;;;;3.10;3.00;;;;;;;26.28;36.57;97763.69;5265113;27;20014;-62
2024/04/12 12:37:20;;;;;;;3.50;3.40;;;;;;;26.10;36.07;97723.69;5267149;27;20006;-62
2024/04/12 12:39:47;;;;;;;3.75;3.65;;;;;;;26.80;35.44;97755.38;5266153;27;20038;-61
2024/04/12 12:42:16;;;;;;;3.30;3.20;;;;;;;26.24;36.13;97757.34;5267045;27;20006;-61
2024/04/12 12:44:43;;;;;;;3.50;3.40;;;;;;;25.76;36.26;97755.63;5263691;27;20013;-62
2024/04/12 12:47:13;;;;;;;3.25;3.15;;;;;;;26.30;36.75;97761.19;5265958;27;20003;-62
2024/04/12 12:49:46;;;;;;;3.47;3.38;;;;;;;26.32;36.99;97753.78;5266762;27;20592;-63
2024/04/12 12:52:13;;;;;;;3.45;3.35;;;;;;;26.41;37.52;97750.25;5266722;27;20006;-62
2024/04/12 12:54:42;;;;;;;3.42;3.33;;;;;;;26.23;37.62;97747.22;5266275;27;20016;-62
2024/04/12 12:57:14;;;;;;;3.53;3.42;;;;;;;26.36;37.15;97743.09;5267056;27;20054;-63
2024/04/12 12:59:46;;;;;;;3.47;3.38;;;;;;;25.48;36.58;97698.97;5266334;27;20006;-61
2024/04/12 13:02:16;;;;;;;3.30;3.20;;;;;;;25.29;36.93;97687.31;5264810;27;20014;-61
2024/04/12 13:04:47;;;;;;;3.22;3.13;;;;;;;25.77;36.12;97739.38;5264502;27;20018;-60
2024/04/12 13:07:17;;;;;;;3.25;3.15;;;;;;;25.57;36.50;97730.28;5266532;27;20105;-60
2024/04/12 13:09:53;;;;;;;3.17;3.08;;;;;;;25.89;36.19;97735.75;5266103;27;20058;-62
2024/04/12 13:12:28;;;;;;;3.17;3.08;;;;;;;25.89;35.74;97724.38;5265206;27;20539;-63
2024/04/12 13:14:57;;;;;;;3.05;2.95;;;;;;;26.00;35.80;97717.16;5266044;27;20508;-61
2024/04/12 13:17:25;;;;;;;3.28;3.17;;;;;;;26.08;36.80;97731.91;5264960;27;20014;-63
2024/04/12 13:19:53;;;;;;;3.47;3.38;;;;;;;26.49;35.60;97740.22;5265513;27;20057;-62
2024/04/12 13:22:21;;;;;;;3.40;3.30;;;;;;;25.87;35.96;97726.88;5265752;27;20010;-62